createdAt,value
2023-02-08T00:03:54.554Z,-2.12
2023-02-08T00:08:57.471Z,-2.13
2023-02-08T00:14:00.168Z,-2.11
2023-02-08T00:19:15.740Z,-2.09
2023-02-08T00:24:20.031Z,-2.09
2023-02-08T00:29:21.965Z,-2.09
2023-02-08T00:34:30.616Z,-2.09
2023-02-08T00:39:32.892Z,-2.08
2023-02-08T00:44:35.254Z,-2.09
2023-02-08T00:49:37.996Z,-2.09
2023-02-08T00:54:42.350Z,-2.12
2023-02-08T00:59:44.519Z,-2.14
2023-02-08T01:04:49.216Z,-2.16
2023-02-08T01:09:51.573Z,-2.18
2023-02-08T01:14:57.311Z,-2.20
2023-02-08T01:20:00.243Z,-2.22
2023-02-08T01:25:03.173Z,-2.23
2023-02-08T01:30:13.938Z,-2.26
2023-02-08T01:35:16.533Z,-2.29
2023-02-08T01:40:22.228Z,-2.32
2023-02-08T01:45:34.148Z,-2.35
2023-02-08T01:51:10.999Z,-2.38
2023-02-08T01:56:22.385Z,-2.40
2023-02-08T02:01:26.240Z,-2.41
2023-02-08T02:06:40.252Z,-2.43
2023-02-08T02:11:45.025Z,-2.46
2023-02-08T02:16:47.286Z,-2.47
2023-02-08T02:22:14.176Z,-2.45
2023-02-08T02:27:30.076Z,-2.41
2023-02-08T02:33:00.247Z,-2.36
2023-02-08T02:38:45.379Z,-2.35
2023-02-08T02:43:58.660Z,-2.34
2023-02-08T02:49:20.746Z,-2.33
2023-02-08T02:54:27.484Z,-2.29
2023-02-08T02:59:33.906Z,-2.28
2023-02-08T03:04:38.807Z,-2.25
2023-02-08T03:10:22.929Z,-2.24
2023-02-08T03:16:03.925Z,-2.23
2023-02-08T03:21:49.315Z,-2.21
2023-02-08T03:27:47.694Z,-2.17
2023-02-08T03:33:09.962Z,-2.15
2023-02-08T03:38:35.971Z,-2.17
2023-02-08T03:44:02.485Z,-2.16
2023-02-08T03:49:15.742Z,-2.14
2023-02-08T03:54:23.335Z,-2.14
2023-02-08T04:00:02.581Z,-2.13
2023-02-08T04:05:27.214Z,-2.14
2023-02-08T04:10:29.475Z,-2.13
2023-02-08T04:15:32.501Z,-2.15
2023-02-08T04:20:34.349Z,-2.12
2023-02-08T04:25:36.729Z,-2.10
2023-02-08T04:30:39.194Z,-2.11
2023-02-08T04:35:42.529Z,-2.13
2023-02-08T04:40:45.405Z,-2.13
2023-02-08T04:45:50.555Z,-2.09
2023-02-08T04:50:59.201Z,-2.05
2023-02-08T04:56:01.321Z,-1.99
2023-02-08T05:01:10.855Z,-1.96
2023-02-08T05:06:13.254Z,-1.92
2023-02-08T05:11:23.784Z,-1.91
2023-02-08T05:16:28.885Z,-1.87
2023-02-08T05:21:33.469Z,-1.81
2023-02-08T05:26:35.795Z,-1.74
2023-02-08T05:31:37.967Z,-1.68
2023-02-08T05:36:43.393Z,-1.67
2023-02-08T05:41:45.412Z,-1.65
2023-02-08T05:46:48.037Z,-1.64
2023-02-08T05:51:50.360Z,-1.66
2023-02-08T05:56:52.338Z,-1.64
2023-02-08T06:01:54.286Z,-1.62
2023-02-08T06:06:56.741Z,-1.59
2023-02-08T06:12:02.067Z,-1.55
2023-02-08T06:17:07.200Z,-1.52
2023-02-08T06:22:09.613Z,-1.49
2023-02-08T06:27:11.621Z,-1.48
2023-02-08T06:32:21.363Z,-1.46
2023-02-08T06:37:26.595Z,-1.43
2023-02-08T06:42:28.988Z,-1.39
2023-02-08T06:47:34.775Z,-1.34
2023-02-08T06:52:37.480Z,-1.30
2023-02-08T06:57:39.409Z,-1.24
2023-02-08T07:02:41.821Z,-1.18
2023-02-08T07:07:43.936Z,-1.15
2023-02-08T07:12:53.681Z,-1.10
2023-02-08T07:18:00.113Z,-1.00
2023-02-08T07:23:02.363Z,-0.88
2023-02-08T07:28:05.091Z,-0.82
2023-02-08T07:33:10.914Z,-0.84
2023-02-08T07:38:20.620Z,-0.80
2023-02-08T07:43:23.235Z,-0.77
2023-02-08T07:48:28.439Z,-0.78
2023-02-08T07:53:31.281Z,-0.75
2023-02-08T07:58:33.874Z,-0.72
2023-02-08T08:03:36.356Z,-0.68
2023-02-08T08:08:39.790Z,-0.57
2023-02-08T08:13:42.324Z,-0.43
2023-02-08T08:18:44.796Z,-0.24
2023-02-08T08:23:50.971Z,-0.17
2023-02-08T08:28:53.463Z,-0.11
2023-02-08T08:33:55.970Z,-0.00
2023-02-08T08:38:58.765Z,0.19
2023-02-08T08:44:01.908Z,0.29
2023-02-08T08:49:05.277Z,0.44
2023-02-08T08:54:08.558Z,0.56
2023-02-08T08:59:10.998Z,0.60
2023-02-08T09:04:13.672Z,0.57
2023-02-08T09:09:18.204Z,0.51
2023-02-08T09:14:20.746Z,0.47
2023-02-08T09:19:23.736Z,0.51
2023-02-08T09:24:26.238Z,0.58
2023-02-08T09:29:30.463Z,0.68
2023-02-08T09:34:33.315Z,0.73
2023-02-08T09:39:37.859Z,0.83
2023-02-08T09:45:57.880Z,0.93
2023-02-08T09:51:37.526Z,1.05
2023-02-08T09:56:42.187Z,1.16
2023-02-08T10:01:46.728Z,1.21
2023-02-08T10:06:50.138Z,1.34
2023-02-08T10:12:18.838Z,1.42
2023-02-08T10:18:04.930Z,1.49
2023-02-08T10:23:42.431Z,1.54
2023-02-08T10:29:58.149Z,1.59
2023-02-08T10:35:01.569Z,1.63
2023-02-08T10:40:21.072Z,1.64
2023-02-08T10:45:45.865Z,1.63
2023-02-08T10:50:48.234Z,1.68
2023-02-08T10:55:51.121Z,1.77
2023-02-08T11:00:54.283Z,1.86
2023-02-08T11:05:59.561Z,1.91
2023-02-08T11:11:08.965Z,1.89
2023-02-08T11:16:19.921Z,1.94
2023-02-08T11:21:34.683Z,1.98
2023-02-08T11:26:38.165Z,1.92
2023-02-08T11:32:02.326Z,1.88
2023-02-08T11:37:24.064Z,1.93
2023-02-08T11:42:37.450Z,2.05
2023-02-08T11:47:39.851Z,2.11
2023-02-08T11:52:46.156Z,2.16
2023-02-08T11:57:55.766Z,2.09
2023-02-08T12:03:13.872Z,1.99
2023-02-08T12:08:50.036Z,1.92
2023-02-08T12:14:22.659Z,1.89
2023-02-08T12:19:42.582Z,1.74
2023-02-08T12:25:32.197Z,1.72
2023-02-08T12:30:39.476Z,1.84
2023-02-08T12:36:04.103Z,1.93
2023-02-08T12:41:21.525Z,2.02
2023-02-08T12:46:32.551Z,2.15
2023-02-08T12:51:59.341Z,2.25
2023-02-08T12:57:03.542Z,2.36
2023-02-08T13:02:47.368Z,2.35
2023-02-08T13:07:58.511Z,2.30
2023-02-08T13:13:30.679Z,2.23
2023-02-08T13:18:40.000Z,2.20
2023-02-08T13:23:52.728Z,2.17
2023-02-08T13:28:59.434Z,2.13
2023-02-08T13:34:14.771Z,2.14
2023-02-08T13:39:49.231Z,2.06
2023-02-08T13:44:55.474Z,2.00
2023-02-08T13:50:00.852Z,1.92
2023-02-08T13:55:51.312Z,1.84
2023-02-08T14:00:53.908Z,1.75
2023-02-08T14:06:08.673Z,1.72
2023-02-08T14:11:40.735Z,1.71
2023-02-08T14:16:45.444Z,1.71
2023-02-08T14:21:50.533Z,1.69
2023-02-08T14:27:28.301Z,1.58
2023-02-08T14:32:35.758Z,1.47
2023-02-08T14:37:38.560Z,1.35
2023-02-08T14:43:07.856Z,1.25
2023-02-08T14:48:47.630Z,1.12
2023-02-08T14:54:07.004Z,1.06
2023-02-08T14:59:21.302Z,0.97
2023-02-08T15:04:24.127Z,0.87
2023-02-08T15:09:32.860Z,0.78
2023-02-08T15:14:37.501Z,0.66
2023-02-08T15:19:40.828Z,0.49
2023-02-08T15:25:25.810Z,0.35
2023-02-08T15:30:39.215Z,0.18
2023-02-08T15:35:43.212Z,0.01
2023-02-08T15:41:04.392Z,-0.15
2023-02-08T15:46:19.093Z,-0.30
2023-02-08T15:51:24.275Z,-0.46
2023-02-08T15:56:38.404Z,-0.60
2023-02-08T16:01:47.239Z,-0.76
2023-02-08T16:06:56.218Z,-0.92
2023-02-08T16:12:01.016Z,-1.07
2023-02-08T16:17:04.374Z,-1.21
2023-02-08T16:22:22.952Z,-1.37
2023-02-08T16:27:29.874Z,-1.53
2023-02-08T16:32:35.939Z,-1.69
2023-02-08T16:37:38.692Z,-1.83
2023-02-08T16:42:41.049Z,-1.95
2023-02-08T16:47:49.978Z,-2.05
2023-02-08T16:52:59.766Z,-2.14
2023-02-08T16:58:02.230Z,-2.21
2023-02-08T17:03:04.940Z,-2.29
2023-02-08T17:08:12.136Z,-2.36
2023-02-08T17:13:20.181Z,-2.43
2023-02-08T17:18:23.171Z,-2.50
2023-02-08T17:23:26.606Z,-2.55
2023-02-08T17:28:29.379Z,-2.60
2023-02-08T17:33:36.532Z,-2.54
2023-02-08T17:38:40.366Z,-2.45
2023-02-08T17:43:42.379Z,-2.48
2023-02-08T17:48:46.686Z,-2.55
2023-02-08T17:53:51.263Z,-2.64
2023-02-08T17:58:55.766Z,-2.77
2023-02-08T18:03:59.604Z,-2.89
2023-02-08T18:09:02.870Z,-3.01
2023-02-08T18:14:09.577Z,-3.10
2023-02-08T18:19:12.354Z,-3.18
2023-02-08T18:24:14.716Z,-3.26
2023-02-08T18:29:18.529Z,-3.31
2023-02-08T18:34:21.349Z,-3.35
2023-02-08T18:39:24.196Z,-3.37
2023-02-08T18:44:26.235Z,-3.41
2023-02-08T18:49:28.236Z,-3.45
2023-02-08T18:54:33.767Z,-3.53
2023-02-08T18:59:35.974Z,-3.62
2023-02-08T19:04:39.189Z,-3.71
2023-02-08T19:09:44.648Z,-3.82
2023-02-08T19:14:51.141Z,-3.95
2023-02-08T19:19:54.072Z,-4.04
2023-02-08T19:25:07.927Z,-4.12
2023-02-08T19:30:10.593Z,-4.21
2023-02-08T19:35:12.876Z,-4.27
2023-02-08T19:40:15.748Z,-4.35
2023-02-08T19:45:18.089Z,-4.43
2023-02-08T19:50:20.065Z,-4.50
2023-02-08T19:55:23.514Z,-4.56
2023-02-08T20:00:25.969Z,-4.64
2023-02-08T20:05:27.782Z,-4.71
2023-02-08T20:10:29.842Z,-4.79
2023-02-08T20:15:34.799Z,-4.82
2023-02-08T20:20:37.737Z,-4.82
2023-02-08T20:25:39.770Z,-4.80
2023-02-08T20:30:42.038Z,-4.78
2023-02-08T20:35:44.442Z,-4.77
2023-02-08T20:40:46.553Z,-4.83
2023-02-08T20:45:48.706Z,-4.90
2023-02-08T20:50:51.170Z,-4.96
2023-02-08T20:55:53.255Z,-5.01
2023-02-08T21:00:55.237Z,-5.10
2023-02-08T21:05:58.177Z,-5.19
2023-02-08T21:11:02.318Z,-5.25
2023-02-08T21:16:06.157Z,-5.25
2023-02-08T21:21:09.482Z,-5.26
2023-02-08T21:26:14.914Z,-5.26
2023-02-08T21:31:19.983Z,-5.27
2023-02-08T21:36:24.000Z,-5.29
2023-02-08T21:41:29.380Z,-5.31
2023-02-08T21:46:32.670Z,-5.34
2023-02-08T21:51:53.930Z,-5.38
2023-02-08T21:57:01.686Z,-5.42
2023-02-08T22:02:07.181Z,-5.44
2023-02-08T22:07:09.318Z,-5.48
2023-02-08T22:12:18.777Z,-5.52
2023-02-08T22:17:20.845Z,-5.56
2023-02-08T22:22:22.694Z,-5.58
2023-02-08T22:27:27.621Z,-5.52
2023-02-08T22:32:32.273Z,-5.48
2023-02-08T22:37:35.369Z,-5.44
2023-02-08T22:42:39.112Z,-5.38
2023-02-08T22:47:41.125Z,-5.31
2023-02-08T22:52:43.033Z,-5.32
2023-02-08T22:57:45.149Z,-5.40
2023-02-08T23:02:47.193Z,-5.57
2023-02-08T23:07:49.615Z,-5.70
2023-02-08T23:12:51.552Z,-5.78
2023-02-08T23:17:54.204Z,-5.90
2023-02-08T23:22:56.658Z,-5.99
2023-02-08T23:27:59.156Z,-6.05
2023-02-08T23:33:01.042Z,-6.12
2023-02-08T23:38:03.725Z,-6.18
2023-02-08T23:43:06.645Z,-6.25
2023-02-08T23:48:08.654Z,-6.31
2023-02-08T23:53:10.718Z,-6.36
2023-02-08T23:58:12.748Z,-6.39
